Time;durP1;ratioP1;P1;durP2;ratioP2;P2;SDS_P1;SDS_P2;PMS_P1;PMS_P2;Temp;Humidity;BMP_temperature;BMP_pressure;BME280_temperature;BME280_humidity;BME280_pressure;Samples;Min_cycle;Max_cycle;Signal;HPM_P1;HPM_P2
2022/11/06 00:01:40;;;;;;;;;;;5.80;99.90;;;;;;4951147;28;19999;-74
2022/11/06 00:04:05;;;;;;;;;;;5.70;99.90;;;;;;4948626;28;20049;-74
2022/11/06 00:06:47;;;;;;;;;;;5.60;99.90;;;;;;4943922;28;19933;-74
2022/11/06 00:09:14;;;;;;;;;;;5.60;99.90;;;;;;4945760;28;19910;-74
2022/11/06 00:11:40;;;;;;;;;;;5.40;99.90;;;;;;4954009;28;19917;-74
2022/11/06 00:14:06;;;;;;;;;;;5.20;99.90;;;;;;4946669;28;19907;-73
2022/11/06 00:16:31;;;;;;;;;;;5.30;99.90;;;;;;4946245;28;20366;-73
2022/11/06 00:19:00;;;;;;;;;;;5.30;99.90;;;;;;4950072;28;19910;-74
2022/11/06 00:21:26;;;;;;;;;;;5.40;99.90;;;;;;4946824;28;19914;-74
2022/11/06 00:23:52;;;;;;;;;;;5.40;99.90;;;;;;4943234;28;20030;-73
2022/11/06 00:26:19;;;;;;;;;;;5.40;99.90;;;;;;4948068;28;20095;-73
2022/11/06 00:28:45;;;;;;;;;;;5.20;99.90;;;;;;4944820;28;20281;-73
2022/11/06 00:31:11;;;;;;;;;;;5.30;99.90;;;;;;4947122;28;19925;-73
2022/11/06 00:33:37;;;;;;;;;;;5.30;99.90;;;;;;4942016;28;20363;-72
2022/11/06 00:36:04;;;;;;;;;;;5.20;99.90;;;;;;4945697;28;19910;-73
2022/11/06 00:38:30;;;;;;;;;;;5.50;99.90;;;;;;4953662;28;19920;-72
2022/11/06 00:40:56;;;;;;;;;;;5.50;99.90;;;;;;4944621;28;19967;-73
2022/11/06 00:43:21;;;;;;;;;;;5.50;99.90;;;;;;4940160;28;19922;-72
2022/11/06 00:45:46;;;;;;;;;;;5.60;99.90;;;;;;4948561;28;19914;-73
2022/11/06 00:48:12;;;;;;;;;;;5.60;99.90;;;;;;4940189;28;19957;-72
2022/11/06 00:50:37;;;;;;;;;;;5.70;99.90;;;;;;4940485;28;20317;-73
2022/11/06 00:53:03;;;;;;;;;;;5.70;99.90;;;;;;4950588;28;20013;-73
2022/11/06 00:55:28;;;;;;;;;;;5.70;99.90;;;;;;4948597;28;19917;-73
2022/11/06 00:57:57;;;;;;;;;;;5.80;99.90;;;;;;4949887;28;20289;-73
2022/11/06 01:00:22;;;;;;;;;;;5.80;99.90;;;;;;4948122;28;20013;-74
2022/11/06 01:02:48;;;;;;;;;;;5.80;99.90;;;;;;4951274;28;19914;-73
2022/11/06 01:05:13;;;;;;;;;;;5.80;99.90;;;;;;4952230;28;19910;-73
2022/11/06 01:07:39;;;;;;;;;;;5.80;99.90;;;;;;4947340;28;19917;-74
2022/11/06 01:10:05;;;;;;;;;;;5.60;99.90;;;;;;4945020;28;20001;-74
2022/11/06 01:12:31;;;;;;;;;;;5.70;99.90;;;;;;4951731;29;19945;-73
2022/11/06 01:15:03;;;;;;;;;;;5.60;99.90;;;;;;4951933;28;19914;-72
2022/11/06 01:17:28;;;;;;;;;;;5.60;99.90;;;;;;4946045;28;19914;-74
2022/11/06 01:19:53;;;;;;;;;;;5.60;99.90;;;;;;4943998;28;19915;-73
2022/11/06 01:22:19;;;;;;;;;;;5.60;99.90;;;;;;4948451;28;19918;-73
2022/11/06 01:24:44;;;;;;;;;;;5.50;99.90;;;;;;4954979;28;20333;-74
2022/11/06 01:27:10;;;;;;;;;;;5.50;99.90;;;;;;4950151;28;20306;-73
2022/11/06 01:29:38;;;;;;;;;;;5.40;99.90;;;;;;4951286;28;19925;-73
2022/11/06 01:32:04;;;;;;;;;;;5.50;99.90;;;;;;4951025;28;20382;-73
2022/11/06 01:34:29;;;;;;;;;;;5.60;99.90;;;;;;4952251;28;19961;-73
2022/11/06 01:36:54;;;;;;;;;;;5.60;99.90;;;;;;4956018;28;19910;-73
2022/11/06 01:39:20;;;;;;;;;;;5.40;99.90;;;;;;4950468;28;19910;-74
2022/11/06 01:41:47;;;;;;;;;;;5.40;99.90;;;;;;4946934;28;19914;-73
2022/11/06 01:44:31;;;;;;;;;;;5.40;99.90;;;;;;4940096;28;19915;-73
2022/11/06 01:46:57;;;;;;;;;;;5.50;99.90;;;;;;4959013;28;19914;-73
2022/11/06 01:49:23;;;;;;;;;;;5.60;99.90;;;;;;4951684;28;19965;-73
2022/11/06 01:51:53;;;;;;;;;;;5.50;99.90;;;;;;4949252;28;20258;-73
2022/11/06 01:54:20;;;;;;;;;;;5.60;99.90;;;;;;4953185;28;19965;-73
2022/11/06 01:56:48;;;;;;;;;;;5.50;99.90;;;;;;4945435;28;19977;-73
2022/11/06 01:59:15;;;;;;;;;;;5.50;99.90;;;;;;4946345;28;19910;-73
2022/11/06 02:01:40;;;;;;;;;;;5.40;99.90;;;;;;4943217;28;19927;-74
2022/11/06 02:04:12;;;;;;;;;;;5.40;99.90;;;;;;4964716;28;19921;-74
2022/11/06 02:06:37;;;;;;;;;;;5.30;99.90;;;;;;4961861;28;19969;-73
2022/11/06 02:09:10;;;;;;;;;;;5.30;99.90;;;;;;4950515;28;19910;-73
2022/11/06 02:11:39;;;;;;;;;;;5.40;99.90;;;;;;4947127;28;19925;-73
2022/11/06 02:14:10;;;;;;;;;;;5.40;99.90;;;;;;4944699;28;19910;-73
2022/11/06 02:16:45;;;;;;;;;;;5.50;99.90;;;;;;4945852;28;20000;-73
2022/11/06 02:19:38;;;;;;;;;;;5.60;99.90;;;;;;4950804;28;19911;-73
2022/11/06 02:22:22;;;;;;;;;;;5.60;99.90;;;;;;4950221;28;19910;-73
2022/11/06 02:25:02;;;;;;;;;;;5.50;99.90;;;;;;4951510;28;20215;-73
2022/11/06 02:27:28;;;;;;;;;;;5.50;99.90;;;;;;4948947;28;19920;-73
2022/11/06 02:30:02;;;;;;;;;;;5.60;99.90;;;;;;4952542;28;19914;-72
2022/11/06 02:32:32;;;;;;;;;;;5.60;99.90;;;;;;4957648;28;19927;-73
2022/11/06 02:34:59;;;;;;;;;;;5.70;99.90;;;;;;4951511;28;19929;-73
2022/11/06 02:37:33;;;;;;;;;;;5.70;99.90;;;;;;4953112;28;19917;-73
2022/11/06 02:40:01;;;;;;;;;;;5.70;99.90;;;;;;4949908;28;19914;-73
2022/11/06 02:42:28;;;;;;;;;;;5.70;99.90;;;;;;4948887;28;19954;-73
2022/11/06 02:44:54;;;;;;;;;;;5.80;99.90;;;;;;4961584;28;20567;-73
2022/11/06 02:47:21;;;;;;;;;;;5.80;99.90;;;;;;4947733;28;19942;-73
2022/11/06 02:49:55;;;;;;;;;;;5.80;99.90;;;;;;4955888;28;19910;-74
2022/11/06 02:52:28;;;;;;;;;;;6.00;99.90;;;;;;4949453;28;20350;-73
2022/11/06 02:55:13;;;;;;;;;;;6.00;99.90;;;;;;4946915;28;19934;-73
2022/11/06 02:57:41;;;;;;;;;;;5.90;99.90;;;;;;4946141;28;19941;-73
2022/11/06 03:00:11;;;;;;;;;;;6.10;99.90;;;;;;4948624;28;19910;-73
2022/11/06 03:02:57;;;;;;;;;;;6.00;99.90;;;;;;4945622;28;19918;-74
2022/11/06 03:05:47;;;;;;;;;;;6.10;99.90;;;;;;4944560;29;19915;-73
2022/11/06 03:08:17;;;;;;;;;;;6.10;99.90;;;;;;4945163;28;19917;-74
2022/11/06 03:10:58;;;;;;;;;;;6.10;99.90;;;;;;4941221;28;20372;-74
2022/11/06 03:13:30;;;;;;;;;;;6.00;99.90;;;;;;4948608;28;19914;-74
2022/11/06 03:16:18;;;;;;;;;;;6.00;99.90;;;;;;4948038;28;19918;-74
2022/11/06 03:18:50;;;;;;;;;;;5.90;99.90;;;;;;4953471;28;19921;-73
2022/11/06 03:21:26;;;;;;;;;;;6.00;99.90;;;;;;4948464;28;20394;-73
2022/11/06 03:23:55;;;;;;;;;;;5.90;99.90;;;;;;4945623;28;19914;-74
2022/11/06 03:26:23;;;;;;;;;;;5.80;99.90;;;;;;4951059;28;19914;-73
2022/11/06 03:28:53;;;;;;;;;;;5.70;99.90;;;;;;4953250;28;19910;-74
2022/11/06 03:31:24;;;;;;;;;;;5.70;99.90;;;;;;4953956;28;20045;-74
2022/11/06 03:33:51;;;;;;;;;;;5.70;99.90;;;;;;4954184;28;19914;-73
2022/11/06 03:36:22;;;;;;;;;;;5.70;99.90;;;;;;4951705;28;20309;-73
2022/11/06 03:38:50;;;;;;;;;;;5.70;99.90;;;;;;4951832;28;19910;-73
2022/11/06 03:41:25;;;;;;;;;;;5.70;99.90;;;;;;4950362;28;20052;-74
2022/11/06 03:43:54;;;;;;;;;;;5.60;99.90;;;;;;4948693;28;19922;-73
2022/11/06 03:46:23;;;;;;;;;;;5.50;99.90;;;;;;4949119;28;19917;-74
2022/11/06 03:48:54;;;;;;;;;;;5.50;99.90;;;;;;4960745;28;20393;-73
2022/11/06 03:51:31;;;;;;;;;;;5.50;99.90;;;;;;4947970;28;19925;-74
2022/11/06 03:54:09;;;;;;;;;;;5.50;99.90;;;;;;4950843;28;19915;-74
2022/11/06 03:56:43;;;;;;;;;;;5.40;99.90;;;;;;4946258;28;19918;-74
2022/11/06 03:59:11;;;;;;;;;;;5.50;99.90;;;;;;4947490;28;19932;-74
2022/11/06 04:01:41;;;;;;;;;;;5.40;99.90;;;;;;4941120;28;19910;-74
2022/11/06 04:04:15;;;;;;;;;;;5.40;99.90;;;;;;4952872;28;19921;-74
2022/11/06 04:06:47;;;;;;;;;;;5.30;99.90;;;;;;4953196;28;19918;-73
2022/11/06 04:14:45;;;;;;;;;;;5.40;99.90;;;;;;4944750;28;19942;-74
2022/11/06 04:17:11;;;;;;;;;;;5.50;99.90;;;;;;4950811;28;19973;-74
2022/11/06 04:19:38;;;;;;;;;;;5.40;99.90;;;;;;4948762;28;19919;-74
2022/11/06 04:22:20;;;;;;;;;;;5.40;99.90;;;;;;4955856;28;19910;-74
2022/11/06 04:28:12;;;;;;;;;;;5.30;99.90;;;;;;4955545;28;19973;-74
2022/11/06 04:30:42;;;;;;;;;;;5.40;99.90;;;;;;4956681;28;19961;-74
2022/11/06 04:33:15;;;;;;;;;;;5.50;99.90;;;;;;4950313;28;19922;-73
2022/11/06 04:35:46;;;;;;;;;;;5.50;99.90;;;;;;4953921;28;20424;-74
2022/11/06 04:38:24;;;;;;;;;;;5.30;99.90;;;;;;4960223;28;19933;-74
2022/11/06 04:40:57;;;;;;;;;;;5.20;99.90;;;;;;4957371;28;20017;-73
2022/11/06 04:43:38;;;;;;;;;;;5.40;99.90;;;;;;4956984;28;20377;-74
2022/11/06 04:46:05;;;;;;;;;;;5.30;99.90;;;;;;4955631;28;20008;-74
2022/11/06 04:48:31;;;;;;;;;;;5.30;99.90;;;;;;4963830;28;19957;-73
2022/11/06 04:51:01;;;;;;;;;;;5.30;99.90;;;;;;4960636;28;19945;-74
2022/11/06 04:53:28;;;;;;;;;;;5.20;99.90;;;;;;4956152;28;19917;-73
2022/11/06 04:55:54;;;;;;;;;;;5.10;99.90;;;;;;4948585;28;19910;-74
2022/11/06 04:58:20;;;;;;;;;;;5.10;99.90;;;;;;4964190;28;19957;-73
2022/11/06 05:00:46;;;;;;;;;;;5.20;99.90;;;;;;4940323;28;20842;-74
2022/11/06 05:03:12;;;;;;;;;;;5.30;99.90;;;;;;4961189;28;20250;-74
2022/11/06 05:05:37;;;;;;;;;;;5.20;99.90;;;;;;4953975;28;19924;-74
2022/11/06 05:08:03;;;;;;;;;;;5.10;99.90;;;;;;4949231;28;19973;-74
2022/11/06 05:10:28;;;;;;;;;;;5.00;99.90;;;;;;4955304;28;19913;-73
2022/11/06 05:12:54;;;;;;;;;;;5.10;99.90;;;;;;4953199;28;19916;-74
2022/11/06 05:15:19;;;;;;;;;;;5.10;99.90;;;;;;4935500;29;19933;-73
2022/11/06 05:17:45;;;;;;;;;;;5.20;99.90;;;;;;4950552;28;20786;-74
2022/11/06 05:20:11;;;;;;;;;;;5.20;99.90;;;;;;4945280;28;19945;-73
2022/11/06 05:22:59;;;;;;;;;;;5.10;99.90;;;;;;4956929;28;19951;-73
2022/11/06 05:25:42;;;;;;;;;;;5.00;99.90;;;;;;4953872;28;20300;-73
2022/11/06 05:28:08;;;;;;;;;;;5.00;99.90;;;;;;4949495;28;20353;-73
2022/11/06 05:30:34;;;;;;;;;;;5.10;99.90;;;;;;4948786;28;19914;-74
2022/11/06 05:33:00;;;;;;;;;;;5.00;99.90;;;;;;4955596;28;19910;-73
2022/11/06 05:35:26;;;;;;;;;;;5.10;99.90;;;;;;4957893;28;19907;-73
2022/11/06 05:37:57;;;;;;;;;;;5.20;99.90;;;;;;4955222;28;20360;-73
2022/11/06 05:40:22;;;;;;;;;;;5.20;99.90;;;;;;4950767;28;19932;-72
2022/11/06 05:42:48;;;;;;;;;;;5.10;99.90;;;;;;4956540;28;20453;-73
2022/11/06 05:45:13;;;;;;;;;;;5.10;99.90;;;;;;4953962;28;19917;-73
2022/11/06 05:47:40;;;;;;;;;;;5.00;99.90;;;;;;4949207;28;19917;-73
2022/11/06 05:50:05;;;;;;;;;;;4.80;99.90;;;;;;4943215;28;19906;-73
2022/11/06 05:52:33;;;;;;;;;;;4.90;99.90;;;;;;4953338;28;19925;-73
2022/11/06 05:54:58;;;;;;;;;;;4.80;99.90;;;;;;4950325;28;20096;-73
2022/11/06 05:57:23;;;;;;;;;;;4.80;99.90;;;;;;4949812;28;20701;-73
2022/11/06 05:59:49;;;;;;;;;;;4.80;99.90;;;;;;4951236;28;20605;-73
2022/11/06 06:02:14;;;;;;;;;;;4.80;99.90;;;;;;4953011;28;19965;-74
2022/11/06 06:04:40;;;;;;;;;;;4.70;99.90;;;;;;4950676;28;19910;-73
2022/11/06 06:07:05;;;;;;;;;;;4.70;99.90;;;;;;4950318;28;19910;-73
2022/11/06 06:09:31;;;;;;;;;;;5.00;99.90;;;;;;4949888;28;19911;-73
2022/11/06 06:11:56;;;;;;;;;;;5.10;99.90;;;;;;4942420;28;19918;-73
2022/11/06 06:14:21;;;;;;;;;;;5.00;99.90;;;;;;4958930;28;19910;-72
2022/11/06 06:16:47;;;;;;;;;;;5.10;99.90;;;;;;4945456;28;20281;-74
2022/11/06 06:19:13;;;;;;;;;;;5.00;99.90;;;;;;4952988;28;19910;-73
2022/11/06 06:21:38;;;;;;;;;;;5.00;99.90;;;;;;4958731;28;19988;-73
2022/11/06 06:24:04;;;;;;;;;;;5.00;99.90;;;;;;4946721;28;20432;-73
2022/11/06 06:26:29;;;;;;;;;;;5.00;99.90;;;;;;4951603;28;19931;-73
2022/11/06 06:28:55;;;;;;;;;;;4.90;99.90;;;;;;4953963;28;20526;-73
2022/11/06 06:31:20;;;;;;;;;;;4.80;99.90;;;;;;4955181;28;20377;-73
2022/11/06 06:33:46;;;;;;;;;;;4.70;99.90;;;;;;4951172;28;19922;-73
2022/11/06 06:36:11;;;;;;;;;;;4.70;99.90;;;;;;4960384;28;19921;-73
2022/11/06 06:38:36;;;;;;;;;;;4.80;99.90;;;;;;4953083;28;20279;-73
2022/11/06 06:41:03;;;;;;;;;;;4.80;99.90;;;;;;4952381;28;19918;-73
2022/11/06 06:43:28;;;;;;;;;;;5.00;99.90;;;;;;4958593;28;19929;-73
2022/11/06 06:45:56;;;;;;;;;;;5.10;99.90;;;;;;4945382;28;19911;-74
2022/11/06 06:48:22;;;;;;;;;;;5.10;99.90;;;;;;4949779;28;19910;-74
2022/11/06 06:50:47;;;;;;;;;;;5.20;99.90;;;;;;4949134;28;19914;-73
2022/11/06 06:53:24;;;;;;;;;;;5.30;99.90;;;;;;4943590;28;19917;-73
2022/11/06 06:55:50;;;;;;;;;;;5.30;99.90;;;;;;4945949;28;19970;-73
2022/11/06 06:58:19;;;;;;;;;;;5.50;99.90;;;;;;4956575;28;20341;-72
2022/11/06 07:00:44;;;;;;;;;;;5.50;99.90;;;;;;4947336;29;19911;-73
2022/11/06 07:03:10;;;;;;;;;;;5.60;99.90;;;;;;4955481;28;19917;-74
2022/11/06 07:05:35;;;;;;;;;;;5.80;99.90;;;;;;4941400;28;19914;-73
2022/11/06 07:08:01;;;;;;;;;;;5.90;99.90;;;;;;4945313;28;20171;-74
2022/11/06 07:10:26;;;;;;;;;;;5.90;99.90;;;;;;4958781;28;19997;-74
2022/11/06 07:12:52;;;;;;;;;;;6.00;99.90;;;;;;4947516;28;20280;-74
2022/11/06 07:15:17;;;;;;;;;;;6.10;99.90;;;;;;4944884;28;19922;-73
2022/11/06 07:17:43;;;;;;;;;;;6.20;99.90;;;;;;4947978;28;20627;-72
2022/11/06 07:20:08;;;;;;;;;;;6.10;99.90;;;;;;4950099;28;20364;-73
2022/11/06 07:22:34;;;;;;;;;;;6.10;99.90;;;;;;4938792;28;19925;-74
2022/11/06 07:24:59;;;;;;;;;;;6.20;99.90;;;;;;4946848;28;19914;-74
2022/11/06 07:27:25;;;;;;;;;;;6.10;99.90;;;;;;4949767;28;19910;-74
2022/11/06 07:29:50;;;;;;;;;;;6.20;99.90;;;;;;4944899;28;19941;-74
2022/11/06 07:32:16;;;;;;;;;;;6.20;99.90;;;;;;4950116;28;19918;-74
2022/11/06 07:34:41;;;;;;;;;;;6.30;99.90;;;;;;4944396;28;19914;-73
2022/11/06 07:37:07;;;;;;;;;;;6.30;99.90;;;;;;4953793;28;20385;-73
2022/11/06 07:39:32;;;;;;;;;;;6.40;99.90;;;;;;4951213;28;19929;-73
2022/11/06 07:41:58;;;;;;;;;;;6.40;99.90;;;;;;4948540;28;20333;-73
2022/11/06 07:44:23;;;;;;;;;;;6.40;99.90;;;;;;4948671;28;19914;-74
2022/11/06 07:49:47;;;;;;;;;;;6.50;99.90;;;;;;4917454;28;20301;-74
2022/11/06 07:52:16;;;;;;;;;;;6.60;99.90;;;;;;4945093;28;19918;-76
2022/11/06 07:54:41;;;;;;;;;;;6.50;99.90;;;;;;4951678;28;19911;-72
2022/11/06 07:57:07;;;;;;;;;;;6.50;99.90;;;;;;4945032;28;20464;-72
2022/11/06 07:59:33;;;;;;;;;;;6.50;99.90;;;;;;4946385;28;19939;-72
2022/11/06 08:01:58;;;;;;;;;;;6.70;99.90;;;;;;4941249;28;19915;-73
2022/11/06 08:04:24;;;;;;;;;;;6.70;99.90;;;;;;4945627;28;19972;-73
2022/11/06 08:06:49;;;;;;;;;;;6.80;99.90;;;;;;4944579;28;19911;-73
2022/11/06 08:09:15;;;;;;;;;;;6.90;99.90;;;;;;4948850;28;20354;-72
2022/11/06 08:11:40;;;;;;;;;;;6.90;99.90;;;;;;4943473;28;19921;-73
2022/11/06 08:14:06;;;;;;;;;;;6.90;99.90;;;;;;4940628;28;19919;-72
2022/11/06 08:16:32;;;;;;;;;;;7.00;99.90;;;;;;4950923;28;19914;-73
2022/11/06 08:18:57;;;;;;;;;;;7.10;99.90;;;;;;4952617;28;19970;-72
2022/11/06 08:21:23;;;;;;;;;;;7.10;99.90;;;;;;4952979;28;19997;-73
2022/11/06 08:23:48;;;;;;;;;;;7.20;99.90;;;;;;4945914;28;19941;-73
2022/11/06 08:26:13;;;;;;;;;;;7.20;99.90;;;;;;4939005;28;19917;-73
2022/11/06 08:28:39;;;;;;;;;;;7.30;99.90;;;;;;4947717;28;19936;-72
2022/11/06 08:31:06;;;;;;;;;;;7.40;99.90;;;;;;4953741;28;19919;-73
2022/11/06 08:33:31;;;;;;;;;;;7.50;99.90;;;;;;4942488;28;20047;-72
2022/11/06 08:36:00;;;;;;;;;;;7.60;99.90;;;;;;4948340;28;20576;-72
2022/11/06 08:38:25;;;;;;;;;;;7.70;99.90;;;;;;4950464;28;20001;-73
2022/11/06 08:40:50;;;;;;;;;;;7.80;99.90;;;;;;4948069;28;19986;-73
2022/11/06 08:43:16;;;;;;;;;;;7.90;99.90;;;;;;4954311;28;20005;-73
2022/11/06 08:45:42;;;;;;;;;;;8.00;99.90;;;;;;4958332;28;20277;-71
2022/11/06 08:48:08;;;;;;;;;;;8.00;99.90;;;;;;4953355;28;19911;-72
2022/11/06 08:50:35;;;;;;;;;;;8.00;99.90;;;;;;4951221;28;20290;-71
2022/11/06 08:53:02;;;;;;;;;;;8.00;99.90;;;;;;4952578;28;19940;-72
2022/11/06 08:55:29;;;;;;;;;;;8.10;99.90;;;;;;4941164;28;19914;-73
2022/11/06 08:57:54;;;;;;;;;;;8.10;99.90;;;;;;4952908;28;19965;-73
2022/11/06 09:00:19;;;;;;;;;;;8.20;99.90;;;;;;4947771;29;19907;-72
2022/11/06 09:02:45;;;;;;;;;;;8.30;99.90;;;;;;4946879;28;19910;-72
2022/11/06 09:05:10;;;;;;;;;;;8.50;99.90;;;;;;4943813;28;19946;-71
2022/11/06 09:07:36;;;;;;;;;;;8.50;99.90;;;;;;4958381;28;19917;-71
2022/11/06 09:10:01;;;;;;;;;;;8.50;99.90;;;;;;4940545;28;19993;-73
2022/11/06 09:12:27;;;;;;;;;;;8.60;99.90;;;;;;4955424;28;19914;-73
2022/11/06 09:14:52;;;;;;;;;;;8.70;99.90;;;;;;4948453;28;19906;-73
2022/11/06 09:17:22;;;;;;;;;;;8.80;99.90;;;;;;4951300;29;20589;-72
2022/11/06 09:19:47;;;;;;;;;;;8.90;99.90;;;;;;4946122;28;19906;-73
2022/11/06 09:22:13;;;;;;;;;;;9.00;99.90;;;;;;4962284;28;19918;-73
2022/11/06 09:24:38;;;;;;;;;;;9.00;99.90;;;;;;4957409;28;19918;-72
2022/11/06 09:27:04;;;;;;;;;;;9.20;99.90;;;;;;4950332;28;19914;-70
2022/11/06 09:29:29;;;;;;;;;;;9.30;99.90;;;;;;4959026;28;20393;-71
2022/11/06 09:31:55;;;;;;;;;;;9.30;99.90;;;;;;4945469;28;19925;-75
2022/11/06 09:34:20;;;;;;;;;;;9.20;99.90;;;;;;4948621;28;19911;-71
2022/11/06 09:36:46;;;;;;;;;;;9.20;99.90;;;;;;4951260;28;19910;-72
2022/11/06 09:39:12;;;;;;;;;;;9.30;99.90;;;;;;4961824;28;20377;-72
2022/11/06 09:41:48;;;;;;;;;;;9.30;99.90;;;;;;4967619;28;20366;-72
2022/11/06 09:44:25;;;;;;;;;;;9.30;99.90;;;;;;4948760;28;19922;-74
2022/11/06 09:46:54;;;;;;;;;;;9.50;99.90;;;;;;4939701;28;20062;-73
2022/11/06 09:49:42;;;;;;;;;;;9.60;99.90;;;;;;4943530;28;19949;-74
2022/11/06 09:52:12;;;;;;;;;;;9.60;99.90;;;;;;4941493;28;20180;-74
2022/11/06 09:55:04;;;;;;;;;;;9.70;99.90;;;;;;4942269;28;19964;-73
2022/11/06 09:57:38;;;;;;;;;;;9.70;99.90;;;;;;4938197;28;19989;-73
2022/11/06 10:00:05;;;;;;;;;;;9.80;99.90;;;;;;4941833;28;19919;-74
2022/11/06 10:02:47;;;;;;;;;;;10.00;99.90;;;;;;4943334;28;19917;-74
2022/11/06 10:05:21;;;;;;;;;;;10.00;99.90;;;;;;4940525;28;19919;-74
2022/11/06 10:07:49;;;;;;;;;;;10.10;99.90;;;;;;4943950;28;19919;-74
2022/11/06 10:10:19;;;;;;;;;;;10.10;99.90;;;;;;4941175;28;19950;-75
2022/11/06 10:12:58;;;;;;;;;;;10.10;99.90;;;;;;4941933;28;19914;-73
2022/11/06 10:15:31;;;;;;;;;;;10.10;99.90;;;;;;4942861;28;19910;-70
2022/11/06 10:17:59;;;;;;;;;;;10.20;99.90;;;;;;4942807;28;20442;-72
2022/11/06 10:20:29;;;;;;;;;;;10.20;99.90;;;;;;4942930;28;19986;-72
2022/11/06 10:23:10;;;;;;;;;;;10.30;99.90;;;;;;4940839;28;19929;-71
2022/11/06 10:25:42;;;;;;;;;;;10.30;99.90;;;;;;4937461;28;19918;-71
2022/11/06 10:28:14;;;;;;;;;;;10.40;99.90;;;;;;4939354;28;20401;-72
2022/11/06 10:30:49;;;;;;;;;;;10.40;99.90;;;;;;4939692;28;19923;-72
2022/11/06 10:33:21;;;;;;;;;;;10.40;99.90;;;;;;4940465;28;20652;-75
2022/11/06 10:35:53;;;;;;;;;;;10.50;99.90;;;;;;4941625;28;19918;-78
2022/11/06 10:38:26;;;;;;;;;;;10.60;99.90;;;;;;4940243;28;20016;-75
2022/11/06 10:40:53;;;;;;;;;;;11.50;99.90;;;;;;4942075;28;19922;-76
2022/11/06 10:43:24;;;;;;;;;;;12.10;99.90;;;;;;4936827;28;19907;-76
2022/11/06 10:45:52;;;;;;;;;;;13.00;99.90;;;;;;4940681;28;19922;-76
2022/11/06 10:48:24;;;;;;;;;;;13.80;97.80;;;;;;4937569;28;19923;-75
2022/11/06 10:51:02;;;;;;;;;;;15.50;91.90;;;;;;4933585;28;20512;-80
2022/11/06 10:53:37;;;;;;;;;;;17.20;84.10;;;;;;4932867;28;19918;-76
2022/11/06 10:56:11;;;;;;;;;;;18.40;71.80;;;;;;4933991;28;20350;-74
2022/11/06 10:58:37;;;;;;;;;;;17.70;73.20;;;;;;4950614;28;19917;-76
2022/11/06 11:01:07;;;;;;;;;;;18.10;72.60;;;;;;4939898;28;19911;-75
2022/11/06 11:03:34;;;;;;;;;;;20.10;65.50;;;;;;4940864;28;19918;-75
2022/11/06 11:06:01;;;;;;;;;;;20.20;60.70;;;;;;4939779;28;19918;-74
2022/11/06 11:08:30;;;;;;;;;;;17.70;66.00;;;;;;4941508;28;19946;-73
2022/11/06 11:11:13;;;;;;;;;;;17.00;70.20;;;;;;4938296;28;19965;-75
2022/11/06 11:13:39;;;;;;;;;;;19.20;68.30;;;;;;4940591;28;19946;-77
2022/11/06 11:16:12;;;;;;;;;;;19.50;64.10;;;;;;4942634;28;19921;-75
2022/11/06 11:18:38;;;;;;;;;;;19.90;61.50;;;;;;4940375;28;19922;-74
2022/11/06 11:21:15;;;;;;;;;;;20.30;60.10;;;;;;4941155;28;19914;-76
2022/11/06 11:23:40;;;;;;;;;;;22.30;56.50;;;;;;4939983;28;19914;-76
2022/11/06 11:26:19;;;;;;;;;;;22.60;54.10;;;;;;4941039;28;19918;-73
2022/11/06 11:28:49;;;;;;;;;;;23.60;52.70;;;;;;4939125;28;20344;-75
2022/11/06 11:31:15;;;;;;;;;;;23.40;51.20;;;;;;4933051;28;19929;-75
2022/11/06 11:33:48;;;;;;;;;;;24.90;50.00;;;;;;4934239;28;20523;-77
2022/11/06 11:36:13;;;;;;;;;;;24.10;48.90;;;;;;4933243;28;20468;-76
2022/11/06 11:38:40;;;;;;;;;;;23.30;50.50;;;;;;4930754;28;19958;-76
2022/11/06 11:41:11;;;;;;;;;;;23.90;49.50;;;;;;4938984;28;19914;-76
2022/11/06 11:43:37;;;;;;;;;;;24.80;48.30;;;;;;4941369;28;19910;-77
2022/11/06 11:46:08;;;;;;;;;;;25.80;47.20;;;;;;4941215;28;19941;-76
2022/11/06 11:48:41;;;;;;;;;;;24.40;47.50;;;;;;4943599;28;19926;-74
2022/11/06 11:51:16;;;;;;;;;;;22.30;51.10;;;;;;4944623;28;19910;-84
2022/11/06 11:53:41;;;;;;;;;;;23.80;49.20;;;;;;4946385;28;19917;-75
2022/11/06 11:56:12;;;;;;;;;;;24.10;49.40;;;;;;4943684;28;20001;-76
2022/11/06 11:58:38;;;;;;;;;;;23.90;49.40;;;;;;4936812;28;20363;-75
2022/11/06 12:01:04;;;;;;;;;;;24.50;47.90;;;;;;4945561;28;19961;-81
2022/11/06 12:03:48;;;;;;;;;;;25.40;46.70;;;;;;4941825;28;19910;-83
2022/11/06 12:06:15;;;;;;;;;;;25.30;46.20;;;;;;4935135;29;20288;-76
2022/11/06 12:08:48;;;;;;;;;;;23.90;47.10;;;;;;4936585;28;19918;-77
2022/11/06 12:11:18;;;;;;;;;;;22.30;51.80;;;;;;4935180;28;19914;-78
2022/11/06 12:13:43;;;;;;;;;;;23.80;49.60;;;;;;4939783;28;19950;-74
2022/11/06 12:16:12;;;;;;;;;;;25.00;46.90;;;;;;4939318;28;19950;-77
2022/11/06 12:18:40;;;;;;;;;;;24.40;46.60;;;;;;4943199;28;20010;-75
2022/11/06 12:21:06;;;;;;;;;;;24.90;47.00;;;;;;4940186;28;19918;-75
2022/11/06 12:23:53;;;;;;;;;;;25.40;46.00;;;;;;4937946;28;19981;-75
2022/11/06 12:26:24;;;;;;;;;;;25.00;46.00;;;;;;4945055;28;20368;-74
2022/11/06 12:28:53;;;;;;;;;;;26.50;45.50;;;;;;4935713;28;20286;-74
2022/11/06 12:31:25;;;;;;;;;;;26.20;43.20;;;;;;4939749;28;19919;-74
2022/11/06 12:33:51;;;;;;;;;;;22.40;49.70;;;;;;4940517;29;19921;-75
2022/11/06 12:36:18;;;;;;;;;;;21.80;51.20;;;;;;4943745;28;19909;-76
2022/11/06 12:38:47;;;;;;;;;;;22.80;51.70;;;;;;4939474;28;19917;-77
2022/11/06 12:41:21;;;;;;;;;;;24.50;47.70;;;;;;4935202;28;19914;-76
2022/11/06 12:43:48;;;;;;;;;;;25.80;44.80;;;;;;4938201;28;20000;-76
2022/11/06 12:46:32;;;;;;;;;;;25.20;46.10;;;;;;4942285;28;19942;-77
2022/11/06 12:49:16;;;;;;;;;;;23.00;49.30;;;;;;4942822;28;19960;-75
2022/11/06 12:51:46;;;;;;;;;;;25.60;47.20;;;;;;4941352;28;19918;-75
2022/11/06 12:54:30;;;;;;;;;;;27.10;43.90;;;;;;4939155;28;19914;-75
2022/11/06 12:57:06;;;;;;;;;;;26.90;43.00;;;;;;4943862;28;19929;-75
2022/11/06 12:59:37;;;;;;;;;;;27.40;42.40;;;;;;4943200;28;19918;-81
2022/11/06 13:02:15;;;;;;;;;;;25.80;43.80;;;;;;4945683;28;19910;-79
2022/11/06 13:04:45;;;;;;;;;;;25.20;44.80;;;;;;4940463;28;19918;-77
2022/11/06 13:07:21;;;;;;;;;;;20.30;52.40;;;;;;4939576;28;19961;-76
2022/11/06 13:10:01;;;;;;;;;;;17.30;60.80;;;;;;4945762;28;19946;-77
2022/11/06 13:12:36;;;;;;;;;;;15.90;66.50;;;;;;4945045;28;19910;-75
2022/11/06 13:15:02;;;;;;;;;;;15.20;70.80;;;;;;4937863;28;20288;-74
2022/11/06 13:17:30;;;;;;;;;;;14.70;72.90;;;;;;4936375;28;19913;-75
2022/11/06 13:20:04;;;;;;;;;;;14.40;75.00;;;;;;4940778;28;19910;-76
2022/11/06 13:22:45;;;;;;;;;;;14.30;74.70;;;;;;4943144;28;19915;-73
2022/11/06 13:25:24;;;;;;;;;;;13.50;78.90;;;;;;4937575;28;19918;-73
2022/11/06 13:28:02;;;;;;;;;;;13.30;83.20;;;;;;4939014;28;20365;-74
2022/11/06 13:30:29;;;;;;;;;;;13.10;83.40;;;;;;4950076;28;19917;-73
2022/11/06 13:33:07;;;;;;;;;;;12.90;84.70;;;;;;4946639;28;19977;-73
2022/11/06 13:35:35;;;;;;;;;;;12.70;85.40;;;;;;4940012;28;19957;-75
2022/11/06 13:38:01;;;;;;;;;;;12.60;87.10;;;;;;4945719;28;19911;-73
2022/11/06 13:40:29;;;;;;;;;;;12.60;87.20;;;;;;4937632;28;19923;-75
2022/11/06 13:43:00;;;;;;;;;;;12.50;88.10;;;;;;4947230;28;20353;-74
2022/11/06 13:45:26;;;;;;;;;;;12.60;88.50;;;;;;4941182;28;19925;-75
2022/11/06 13:47:58;;;;;;;;;;;12.40;89.10;;;;;;4938313;28;20505;-76
2022/11/06 13:50:30;;;;;;;;;;;12.30;90.30;;;;;;4941369;28;19910;-74
2022/11/06 13:53:00;;;;;;;;;;;12.40;90.10;;;;;;4936953;28;20045;-75
2022/11/06 13:55:51;;;;;;;;;;;12.80;89.30;;;;;;4941782;28;19914;-75
2022/11/06 13:58:17;;;;;;;;;;;12.50;89.90;;;;;;4937931;28;19962;-73
2022/11/06 14:00:53;;;;;;;;;;;12.50;90.20;;;;;;4944517;28;19945;-73
2022/11/06 14:03:22;;;;;;;;;;;12.50;90.30;;;;;;4941235;28;20533;-74
2022/11/06 14:05:52;;;;;;;;;;;12.40;91.00;;;;;;4942351;28;19970;-74
2022/11/06 14:08:25;;;;;;;;;;;12.40;91.00;;;;;;4938966;28;20001;-74
2022/11/06 14:10:53;;;;;;;;;;;12.30;91.50;;;;;;4943018;28;19917;-73
2022/11/06 14:13:22;;;;;;;;;;;12.30;91.80;;;;;;4941740;28;19910;-74
2022/11/06 14:15:48;;;;;;;;;;;12.60;91.80;;;;;;4938600;28;19917;-74
2022/11/06 14:18:20;;;;;;;;;;;13.80;87.40;;;;;;4939910;28;19919;-75
2022/11/06 14:20:45;;;;;;;;;;;13.50;86.50;;;;;;4939671;28;19981;-75
2022/11/06 14:23:28;;;;;;;;;;;13.90;87.90;;;;;;4938370;28;20420;-75
2022/11/06 14:26:20;;;;;;;;;;;16.30;79.20;;;;;;4938747;28;19922;-74
2022/11/06 14:28:45;;;;;;;;;;;14.80;79.80;;;;;;4918340;28;19918;-71
2022/11/06 14:31:31;;;;;;;;;;;13.20;87.10;;;;;;4941777;28;19922;-70
2022/11/06 14:33:57;;;;;;;;;;;12.50;90.30;;;;;;4943292;28;19972;-70
2022/11/06 14:36:23;;;;;;;;;;;12.20;91.50;;;;;;4941906;28;20548;-75
2022/11/06 14:38:48;;;;;;;;;;;11.90;93.20;;;;;;4939015;28;20009;-76
2022/11/06 14:41:32;;;;;;;;;;;11.60;93.80;;;;;;4937136;28;19942;-76
2022/11/06 14:43:58;;;;;;;;;;;11.50;95.00;;;;;;4938513;28;20388;-77
2022/11/06 14:46:24;;;;;;;;;;;11.30;95.80;;;;;;4940878;28;20573;-78
2022/11/06 14:48:54;;;;;;;;;;;11.40;95.60;;;;;;4941481;28;19918;-79
2022/11/06 14:51:27;;;;;;;;;;;11.30;96.20;;;;;;4941520;28;19922;-79